Time;durP1;ratioP1;P1;durP2;ratioP2;P2;SDS_P1;SDS_P2;PMS_P1;PMS_P2;Temp;Humidity;BMP_temperature;BMP_pressure;BME280_temperature;BME280_humidity;BME280_pressure;Samples;Min_cycle;Max_cycle;Signal;HPM_P1;HPM_P2
2022/01/18 00:00:04;;;;;;;;;;;;;;;;;;5016685;28;20297;-62
2022/01/18 00:02:29;;;;;;;;;;;;;;;;;;5011459;28;19948;-62
2022/01/18 00:04:55;;;;;;;;;;;;;;;;;;5010966;28;20404;-63
2022/01/18 00:07:21;;;;;;;;;;;;;;;;;;5010425;28;19918;-58
2022/01/18 00:09:48;;;;;;;;;;;;;;;;;;5010497;28;20366;-60
2022/01/18 00:12:54;;;;;;;;;;;;;;;;;;5010260;28;19924;-59
2022/01/18 00:23:10;;;;;;;;;;;;;;;;;;5010227;28;20356;-60
2022/01/18 00:25:39;;;;;;;;;;;;;;;;;;5003195;28;19921;-59
2022/01/18 00:28:06;;;;;;;;;;;;;;;;;;4990618;28;19910;-59
2022/01/18 00:36:06;;;;;;;;;;;;;;;;;;4978906;28;19909;-58
2022/01/18 00:38:47;;;;;;;;;;;;;;;;;;4990381;28;20012;-60
2022/01/18 00:41:12;;;;;;;;;;;;;;;;;;4990239;28;20097;-61
2022/01/18 00:43:38;;;;;;;;;;;;;;;;;;4989323;28;20002;-60
2022/01/18 00:46:04;;;;;;;;;;;;;;;;;;4990024;28;19918;-61
2022/01/18 00:48:33;;;;;;;;;;;;;;;;;;4990156;28;19914;-60
2022/01/18 00:50:59;;;;;;;;;;;;;;;;;;4990072;28;19913;-62
2022/01/18 00:53:26;;;;;;;;;;;;;;;;;;4989880;28;20008;-58
2022/01/18 00:56:06;;;;;;;;;;;;;;;;;;5000076;28;19920;-59
2022/01/18 00:58:32;;;;;;;;;;;;;;;;;;5050716;22;19986;-60
2022/01/18 01:00:58;;;;;;;;;;;;;;;;;;5053779;28;19908;-59
2022/01/18 01:03:24;;;;;;;;;;;;;;;;;;5053908;28;20340;-61
2022/01/18 01:05:49;;;;;;;;;;;;;;;;;;5052845;28;19921;-59
2022/01/18 01:08:15;;;;;;;;;;;;;;;;;;5053153;28;20335;-59
2022/01/18 01:10:41;;;;;;;;;;;;;;;;;;5053382;28;19916;-62
2022/01/18 01:13:07;;;;;;;;;;;;;;;;;;5052283;28;19998;-63
2022/01/18 01:15:40;;;;;;;;;;;;;;;;;;5052724;28;19909;-62
2022/01/18 01:18:36;;;;;;;;;;;;;;;;;;5053357;28;19912;-60
2022/01/18 01:45:26;;;;;;;;;;;;;;;;;;5052697;28;20426;-61
2022/01/18 01:47:53;;;;;;;;;;;;;;;;;;5051180;28;19909;-60
2022/01/18 01:50:20;;;;;;;;;;;;;;;;;;5052611;28;19909;-60
2022/01/18 01:52:46;;;;;;;;;;;;;;;;;;5052580;28;19924;-61
2022/01/18 01:55:12;;;;;;;;;;;;;;;;;;5055548;28;19909;-59
2022/01/18 01:57:38;;;;;;;;;;;;;;;;;;5056411;28;19992;-57
2022/01/18 02:00:04;;;;;;;;;;;;;;;;;;5056506;28;19954;-60
2022/01/18 02:02:30;;;;;;;;;;;;;;;;;;5056279;28;20332;-62
2022/01/18 02:04:56;;;;;;;;;;;;;;;;;;5056107;28;19913;-61
2022/01/18 02:07:22;;;;;;;;;;;;;;;;;;5056198;28;19915;-61
2022/01/18 02:09:47;;;;;;;;;;;;;;;;;;5054782;28;19954;-61
2022/01/18 02:12:13;;;;;;;;;;;;;;;;;;5056087;28;19909;-60
2022/01/18 02:14:40;;;;;;;;;;;;;;;;;;5054720;28;20361;-62
2022/01/18 02:22:36;;;;;;;;;;;;;;;;;;5055853;28;19916;-59
2022/01/18 02:25:02;;;;;;;;;;;;;;;;;;5055765;28;20296;-61
2022/01/18 02:27:28;;;;;;;;;;;;;;;;;;5054458;28;19909;-60
2022/01/18 02:29:54;;;;;;;;;;;;;;;;;;5055906;28;19909;-57
2022/01/18 02:32:20;;;;;;;;;;;;;;;;;;5055411;28;19916;-58
2022/01/18 02:34:46;;;;;;;;;;;;;;;;;;5053984;28;20030;-63
2022/01/18 02:37:14;;;;;;;;;;;;;;;;;;5055715;28;19915;-60
2022/01/18 02:39:42;;;;;;;;;;;;;;;;;;5054462;28;19954;-61
2022/01/18 02:42:08;;;;;;;;;;;;;;;;;;5054282;28;19909;-59
2022/01/18 02:44:34;;;;;;;;;;;;;;;;;;5054319;28;19920;-61
2022/01/18 02:47:00;;;;;;;;;;;;;;;;;;5055592;28;19999;-62
2022/01/18 02:49:26;;;;;;;;;;;;;;;;;;5055773;28;19931;-61
2022/01/18 02:51:51;;;;;;;;;;;;;;;;;;5055912;28;20346;-59
2022/01/18 02:54:17;;;;;;;;;;;;;;;;;;5055335;28;19951;-59
2022/01/18 02:56:47;;;;;;;;;;;;;;;;;;5053615;28;19991;-64
2022/01/18 02:59:23;;;;;;;;;;;;;;;;;;5055193;28;20003;-62
2022/01/18 03:04:33;;;;;;;;;;;;;;;;;;5055155;28;19920;-63
2022/01/18 03:06:59;;;;;;;;;;;;;;;;;;5054281;28;20288;-58
2022/01/18 03:09:25;;;;;;;;;;;;;;;;;;5055139;28;20030;-59
2022/01/18 03:11:51;;;;;;;;;;;;;;;;;;5054930;28;19909;-59
2022/01/18 03:14:17;;;;;;;;;;;;;;;;;;5054774;28;19919;-58
2022/01/18 03:16:43;;;;;;;;;;;;;;;;;;5055108;28;19916;-62
2022/01/18 03:19:08;;;;;;;;;;;;;;;;;;5053850;28;19966;-60
2022/01/18 03:21:34;;;;;;;;;;;;;;;;;;5054927;28;19936;-63
2022/01/18 03:24:14;;;;;;;;;;;;;;;;;;5054703;28;20343;-61
2022/01/18 03:29:24;;;;;;;;;;;;;;;;;;5059837;28;19916;-59
2022/01/18 03:31:50;;;;;;;;;;;;;;;;;;5053334;28;19989;-63
2022/01/18 03:34:16;;;;;;;;;;;;;;;;;;5054304;28;19916;-61
2022/01/18 03:36:42;;;;;;;;;;;;;;;;;;5053195;28;19913;-60
2022/01/18 03:39:08;;;;;;;;;;;;;;;;;;5053508;28;19909;-61
2022/01/18 03:41:33;;;;;;;;;;;;;;;;;;5054627;28;20007;-58
2022/01/18 03:43:59;;;;;;;;;;;;;;;;;;5054364;28;19999;-61
2022/01/18 03:46:25;;;;;;;;;;;;;;;;;;5053111;28;19909;-58
2022/01/18 03:48:54;;;;;;;;;;;;;;;;;;5053568;28;21245;-58
2022/01/18 03:51:20;;;;;;;;;;;;;;;;;;5054240;28;19959;-59
2022/01/18 03:53:47;;;;;;;;;;;;;;;;;;5052679;28;20372;-60
2022/01/18 03:56:13;;;;;;;;;;;;;;;;;;5053924;28;19940;-61
2022/01/18 03:58:39;;;;;;;;;;;;;;;;;;5052448;28;19943;-60
2022/01/18 04:01:05;;;;;;;;;;;;;;;;;;5052723;28;19915;-59
2022/01/18 04:03:31;;;;;;;;;;;;;;;;;;5053872;28;20353;-60
2022/01/18 04:05:57;;;;;;;;;;;;;;;;;;5053978;28;19924;-57
2022/01/18 04:08:22;;;;;;;;;;;;;;;;;;5053743;28;20000;-60
2022/01/18 04:10:48;;;;;;;;;;;;;;;;;;5052714;28;20365;-60
2022/01/18 04:13:14;;;;;;;;;;;;;;;;;;5053749;28;19916;-61
2022/01/18 04:15:40;;;;;;;;;;;;;;;;;;5053694;28;19909;-62
2022/01/18 04:26:05;;;;;;;;;;;;;;;;;;5053517;28;20119;-62
2022/01/18 04:28:40;;;;;;;;;;;;;;;;;;5053285;28;20034;-61
2022/01/18 04:31:06;;;;;;;;;;;;;;;;;;5052309;28;20541;-58
2022/01/18 04:33:32;;;;;;;;;;;;;;;;;;5051883;28;20100;-60
2022/01/18 04:35:59;;;;;;;;;;;;;;;;;;5051996;28;19915;-60
2022/01/18 04:38:25;;;;;;;;;;;;;;;;;;5053029;28;19908;-61
2022/01/18 04:40:50;;;;;;;;;;;;;;;;;;5051630;28;20265;-61
2022/01/18 04:48:37;;;;;;;;;;;;;;;;;;5053047;28;19998;-62
2022/01/18 04:51:03;;;;;;;;;;;;;;;;;;5053400;28;20311;-62
2022/01/18 04:53:30;;;;;;;;;;;;;;;;;;5052691;28;19954;-59
2022/01/18 04:55:57;;;;;;;;;;;;;;;;;;5051577;28;19909;-63
2022/01/18 04:58:23;;;;;;;;;;;;;;;;;;5052659;28;19999;-60
2022/01/18 05:00:49;;;;;;;;;;;;;;;;;;5052494;28;20393;-59
2022/01/18 05:03:15;;;;;;;;;;;;;;;;;;5052598;28;19913;-61
2022/01/18 05:05:41;;;;;;;;;;;;;;;;;;5052543;28;19912;-62
2022/01/18 05:08:12;;;;;;;;;;;;;;;;;;5052692;28;19913;-61
2022/01/18 05:10:38;;;;;;;;;;;;;;;;;;5052672;28;19999;-60
2022/01/18 05:13:16;;;;;;;;;;;;;;;;;;5052361;28;20329;-59
2022/01/18 05:15:49;;;;;;;;;;;;;;;;;;5051353;28;19913;-60
2022/01/18 05:21:35;;;;;;;;;;;;;;;;;;5052746;28;19909;-61
2022/01/18 05:23:39;;;;;;;;;;;;;;;;;;5047339;28;20338;-62
2022/01/18 05:26:05;;;;;;;;;;;;;;;;;;5052345;28;19913;-61
2022/01/18 05:28:31;;;;;;;;;;;;;;;;;;5053410;28;19984;-62
2022/01/18 05:30:56;;;;;;;;;;;;;;;;;;5059561;28;19924;-63
2022/01/18 05:33:22;;;;;;;;;;;;;;;;;;5059085;28;19909;-61
2022/01/18 05:35:48;;;;;;;;;;;;;;;;;;5059191;28;20292;-61
2022/01/18 05:38:14;;;;;;;;;;;;;;;;;;5060913;28;19974;-62
2022/01/18 05:40:40;;;;;;;;;;;;;;;;;;5059655;28;19909;-58
2022/01/18 05:43:06;;;;;;;;;;;;;;;;;;5058886;28;19915;-59
2022/01/18 05:45:32;;;;;;;;;;;;;;;;;;5057952;28;20023;-62
2022/01/18 05:47:58;;;;;;;;;;;;;;;;;;5059302;28;19909;-61
2022/01/18 05:50:24;;;;;;;;;;;;;;;;;;5059292;28;19909;-62
2022/01/18 05:52:50;;;;;;;;;;;;;;;;;;5058925;28;19957;-61
2022/01/18 05:55:15;;;;;;;;;;;;;;;;;;5059017;28;20427;-63
2022/01/18 05:57:41;;;;;;;;;;;;;;;;;;5059100;28;19921;-60
2022/01/18 06:00:10;;;;;;;;;;;;;;;;;;5058995;28;19908;-61
2022/01/18 06:07:46;;;;;;;;;;;;;;;;;;5058556;28;20060;-59
2022/01/18 06:10:12;;;;;;;;;;;;;;;;;;5058786;28;19905;-61
2022/01/18 06:12:39;;;;;;;;;;;;;;;;;;5057212;28;19960;-61
2022/01/18 06:15:05;;;;;;;;;;;;;;;;;;5058677;28;19905;-62
2022/01/18 06:17:31;;;;;;;;;;;;;;;;;;5057108;28;20011;-62
2022/01/18 06:19:57;;;;;;;;;;;;;;;;;;5058708;28;19924;-63
2022/01/18 06:22:23;;;;;;;;;;;;;;;;;;5058162;28;20364;-62
2022/01/18 06:24:49;;;;;;;;;;;;;;;;;;5058083;28;19912;-62
2022/01/18 06:27:15;;;;;;;;;;;;;;;;;;5056967;28;19909;-60
2022/01/18 06:29:41;;;;;;;;;;;;;;;;;;5058581;28;20284;-61
2022/01/18 06:32:06;;;;;;;;;;;;;;;;;;5057006;28;19999;-58
2022/01/18 06:34:32;;;;;;;;;;;;;;;;;;5058784;28;20433;-61
2022/01/18 06:36:58;;;;;;;;;;;;;;;;;;5058315;28;19908;-61
2022/01/18 06:39:24;;;;;;;;;;;;;;;;;;5056895;28;19921;-58
2022/01/18 06:41:50;;;;;;;;;;;;;;;;;;5052674;28;20377;-56
2022/01/18 06:44:16;;;;;;;;;;;;;;;;;;5045972;28;19909;-58
2022/01/18 06:46:42;;;;;;;;;;;;;;;;;;5040519;28;19913;-62
2022/01/18 06:49:08;;;;;;;;;;;;;;;;;;5050917;28;19909;-63
2022/01/18 06:51:34;;;;;;;;;;;;;;;;;;5052654;28;20020;-57
2022/01/18 06:54:00;;;;;;;;;;;;;;;;;;5033374;28;19909;-59
2022/01/18 06:56:26;;;;;;;;;;;;;;;;;;5033751;28;19910;-62
2022/01/18 06:58:53;;;;;;;;;;;;;;;;;;5038022;23;19945;-63
2022/01/18 07:01:19;;;;;;;;;;;;;;;;;;5034416;28;19935;-62
2022/01/18 07:03:45;;;;;;;;;;;;;;;;;;5034989;28;20004;-62
2022/01/18 07:06:11;;;;;;;;;;;;;;;;;;5035020;28;20019;-62
2022/01/18 07:08:37;;;;;;;;;;;;;;;;;;5048338;28;19936;-63
2022/01/18 07:11:03;;;;;;;;;;;;;;;;;;5036857;28;20232;-61
2022/01/18 07:13:29;;;;;;;;;;;;;;;;;;5054914;28;19932;-63
2022/01/18 07:15:54;;;;;;;;;;;;;;;;;;5054237;28;20381;-62
2022/01/18 07:18:20;;;;;;;;;;;;;;;;;;5054082;28;20291;-62
2022/01/18 07:20:46;;;;;;;;;;;;;;;;;;5054362;28;19987;-62
2022/01/18 07:23:13;;;;;;;;;;;;;;;;;;5053805;28;19998;-63
2022/01/18 07:25:42;;;;;;;;;;;;;;;;;;5036408;28;19962;-62
2022/01/18 07:28:08;;;;;;;;;;;;;;;;;;5055064;28;19975;-61
2022/01/18 07:30:34;;;;;;;;;;;;;;;;;;5054979;28;19931;-62
2022/01/18 07:33:00;;;;;;;;;;;;;;;;;;5054077;28;20368;-61
2022/01/18 07:35:27;;;;;;;;;;;;;;;;;;5054406;28;19909;-62
2022/01/18 07:37:53;;;;;;;;;;;;;;;;;;5054514;28;19948;-62
2022/01/18 07:40:19;;;;;;;;;;;;;;;;;;5054645;28;19909;-62
2022/01/18 07:42:45;;;;;;;;;;;;;;;;;;5035926;28;20019;-65
2022/01/18 07:45:11;;;;;;;;;;;;;;;;;;5053723;28;20300;-63
2022/01/18 07:47:37;;;;;;;;;;;;;;;;;;5054191;28;19913;-61
2022/01/18 07:50:02;;;;;;;;;;;;;;;;;;5035588;28;20004;-64
2022/01/18 07:52:32;;;;;;;;;;;;;;;;;;5053503;28;19932;-64
2022/01/18 07:54:58;;;;;;;;;;;;;;;;;;5054003;28;20041;-64
2022/01/18 07:57:23;;;;;;;;;;;;;;;;;;5053389;28;19908;-62
2022/01/18 07:59:49;;;;;;;;;;;;;;;;;;5036256;28;19920;-63
2022/01/18 08:02:15;;;;;;;;;;;;;;;;;;5053775;28;19916;-63
2022/01/18 08:04:41;;;;;;;;;;;;;;;;;;5053567;28;20374;-62
2022/01/18 08:07:07;;;;;;;;;;;;;;;;;;5053583;28;20004;-64
2022/01/18 08:09:36;;;;;;;;;;;;;;;;;;5053632;28;19913;-64
2022/01/18 08:12:02;;;;;;;;;;;;;;;;;;5053222;28;20044;-63
2022/01/18 08:14:31;;;;;;;;;;;;;;;;;;5053489;28;19948;-63
2022/01/18 08:17:00;;;;;;;;;;;;;;;;;;5053811;28;19917;-64
2022/01/18 08:19:26;;;;;;;;;;;;;;;;;;5053490;28;20346;-64
2022/01/18 08:21:51;;;;;;;;;;;;;;;;;;5053472;28;20000;-64
2022/01/18 08:24:17;;;;;;;;;;;;;;;;;;5053028;28;19986;-60
2022/01/18 08:26:43;;;;;;;;;;;;;;;;;;5053293;28;19909;-64
2022/01/18 08:29:12;;;;;;;;;;;;;;;;;;5053494;28;20123;-64
2022/01/18 08:31:38;;;;;;;;;;;;;;;;;;5053181;28;19912;-63
2022/01/18 08:34:03;;;;;;;;;;;;;;;;;;5052145;28;20392;-63
2022/01/18 08:36:29;;;;;;;;;;;;;;;;;;5052984;28;19955;-64
2022/01/18 08:38:55;;;;;;;;;;;;;;;;;;5034687;28;20296;-63
2022/01/18 08:41:21;;;;;;;;;;;;;;;;;;5052701;28;19908;-64
2022/01/18 08:43:47;;;;;;;;;;;;;;;;;;5052679;28;19908;-63
2022/01/18 08:46:13;;;;;;;;;;;;;;;;;;5052617;28;19913;-63
2022/01/18 08:48:39;;;;;;;;;;;;;;;;;;5052785;28;19909;-60
2022/01/18 08:51:05;;;;;;;;;;;;;;;;;;5053241;28;19916;-63
2022/01/18 08:53:31;;;;;;;;;;;;;;;;;;5034921;28;20418;-64
2022/01/18 08:55:56;;;;;;;;;;;;;;;;;;5034771;28;19996;-64
2022/01/18 08:58:22;;;;;;;;;;;;;;;;;;5052874;28;20012;-62
2022/01/18 09:00:48;;;;;;;;;;;;;;;;;;5053124;28;20326;-64
2022/01/18 09:03:14;;;;;;;;;;;;;;;;;;5052644;28;19909;-63
2022/01/18 09:05:43;;;;;;;;;;;;;;;;;;5053135;28;20376;-65
2022/01/18 09:08:11;;;;;;;;;;;;;;;;;;5051519;28;19909;-63
2022/01/18 09:10:37;;;;;;;;;;;;;;;;;;5051562;28;19917;-63
2022/01/18 09:13:03;;;;;;;;;;;;;;;;;;5051194;28;20372;-63
2022/01/18 09:15:29;;;;;;;;;;;;;;;;;;5052726;28;19909;-64
2022/01/18 09:17:55;;;;;;;;;;;;;;;;;;5052406;28;19920;-61
2022/01/18 09:20:23;;;;;;;;;;;;;;;;;;5053805;28;19986;-61
2022/01/18 09:22:48;;;;;;;;;;;;;;;;;;5053733;28;19909;-61
2022/01/18 09:25:14;;;;;;;;;;;;;;;;;;5054216;28;20059;-59
2022/01/18 09:27:40;;;;;;;;;;;;;;;;;;5053984;28;19916;-62
2022/01/18 09:30:06;;;;;;;;;;;;;;;;;;5053960;28;19928;-62
2022/01/18 09:32:32;;;;;;;;;;;;;;;;;;5054093;28;19935;-62
2022/01/18 09:34:58;;;;;;;;;;;;;;;;;;5054907;28;20364;-60
2022/01/18 09:37:24;;;;;;;;;;;;;;;;;;5054408;28;19909;-60
2022/01/18 09:39:52;;;;;;;;;;;;;;;;;;5054617;28;19970;-57
2022/01/18 09:42:18;;;;;;;;;;;;;;;;;;5054829;28;19916;-60
2022/01/18 09:44:44;;;;;;;;;;;;;;;;;;5054116;28;19913;-61
2022/01/18 09:47:10;;;;;;;;;;;;;;;;;;5054708;28;19909;-57
2022/01/18 09:49:36;;;;;;;;;;;;;;;;;;5054494;28;20361;-62
2022/01/18 09:52:02;;;;;;;;;;;;;;;;;;5031787;28;19925;-62
2022/01/18 09:54:27;;;;;;;;;;;;;;;;;;5034979;28;19996;-60
2022/01/18 09:56:53;;;;;;;;;;;;;;;;;;5034857;28;19971;-60
2022/01/18 09:59:19;;;;;;;;;;;;;;;;;;5034337;28;20389;-59
2022/01/18 10:01:45;;;;;;;;;;;;;;;;;;5049436;28;20011;-62
2022/01/18 10:04:11;;;;;;;;;;;;;;;;;;5033439;28;19909;-62
2022/01/18 10:06:37;;;;;;;;;;;;;;;;;;5033934;28;19960;-56
2022/01/18 10:09:03;;;;;;;;;;;;;;;;;;5033557;28;20261;-60
2022/01/18 10:11:29;;;;;;;;;;;;;;;;;;5033968;28;19962;-60
2022/01/18 10:13:56;;;;;;;;;;;;;;;;;;5033529;28;20019;-59
2022/01/18 10:16:23;;;;;;;;;;;;;;;;;;5035013;28;19932;-60
2022/01/18 10:18:50;;;;;;;;;;;;;;;;;;5037727;28;19916;-60
2022/01/18 10:21:16;;;;;;;;;;;;;;;;;;5037107;28;19932;-59
2022/01/18 10:23:48;;;;;;;;;;;;;;;;;;5050502;28;19967;-57
2022/01/18 10:26:14;;;;;;;;;;;;;;;;;;5038467;28;19913;-61
2022/01/18 10:28:41;;;;;;;;;;;;;;;;;;5055885;28;19963;-60
2022/01/18 10:31:06;;;;;;;;;;;;;;;;;;5037870;28;19999;-56
2022/01/18 10:33:46;;;;;;;;;;;;;;;;;;5055851;28;19940;-61
2022/01/18 10:36:12;;;;;;;;;;;;;;;;;;5054127;28;19962;-62
2022/01/18 10:38:38;;;;;;;;;;;;;;;;;;5053865;28;20305;-62
2022/01/18 10:41:04;;;;;;;;;;;;;;;;;;5036827;28;19909;-60
2022/01/18 10:43:33;;;;;;;;;;;;;;;;;;5053908;28;19909;-63
2022/01/18 10:45:59;;;;;;;;;;;;;;;;;;5053665;28;20038;-61
2022/01/18 10:48:25;;;;;;;;;;;;;;;;;;5053772;28;19967;-63
2022/01/18 10:50:50;;;;;;;;;;;;;;;;;;5053844;28;20360;-61
2022/01/18 10:53:16;;;;;;;;;;;;;;;;;;5053876;28;19915;-62
2022/01/18 10:55:42;;;;;;;;;;;;;;;;;;5053911;28;20296;-61
2022/01/18 10:58:08;;;;;;;;;;;;;;;;;;5035728;28;20357;-61
2022/01/18 11:00:35;;;;;;;;;;;;;;;;;;5053708;28;19916;-61
2022/01/18 11:03:03;;;;;;;;;;;7.70;99.90;;;;;;5053676;28;19909;-62
2022/01/18 11:05:29;;;;;;;;;;;;;;;;;;5035795;28;19994;-62
2022/01/18 11:07:56;;;;;;;;;;;9.00;99.90;;;;;;5053673;28;20380;-61
2022/01/18 11:10:24;;;;;;;;;;;10.70;99.90;;;;;;5053824;28;19909;-62
2022/01/18 11:12:52;;;;;;;;;;;;;;;;;;5053132;28;19909;-62
2022/01/18 11:15:21;;;;;;;;;;;;;;;;;;5052891;28;19909;-61
2022/01/18 11:17:56;;;;;;;;;;;11.10;99.90;;;;;;5052907;28;19916;-57
2022/01/18 11:20:22;;;;;;;;;;;;;;;;;;5053466;28;19908;-62
2022/01/18 11:22:48;;;;;;;;;;;;;;;;;;5052992;28;19965;-62
2022/01/18 11:25:14;;;;;;;;;;;;;;;;;;5035276;28;20500;-62
2022/01/18 11:27:42;;;;;;;;;;;11.00;99.90;;;;;;5034117;28;20003;-61
2022/01/18 11:30:08;;;;;;;;;;;;;;;;;;5053119;28;19909;-63
2022/01/18 11:32:34;;;;;;;;;;;;;;;;;;5052689;28;19908;-61
2022/01/18 11:35:07;;;;;;;;;;;9.30;99.90;;;;;;5053061;28;19916;-60
2022/01/18 11:37:33;;;;;;;;;;;;;;;;;;5052920;28;19976;-61
2022/01/18 11:40:07;;;;;;;;;;;11.70;99.90;;;;;;5052984;28;20291;-59
2022/01/18 11:42:33;;;;;;;;;;;;;;;;;;5052364;28;20007;-63
2022/01/18 11:44:59;;;;;;;;;;;;;;;;;;5034930;28;19952;-62
2022/01/18 11:47:25;;;;;;;;;;;;;;;;;;5052797;28;20288;-62
2022/01/18 11:49:52;;;;;;;;;;;11.10;99.90;;;;;;5052874;28;19931;-57
2022/01/18 11:52:31;;;;;;;;;;;9.30;99.90;;;;;;5052696;28;19916;-62
2022/01/18 11:54:59;;;;;;;;;;;9.00;99.90;;;;;;5034567;28;19920;-61
2022/01/18 11:57:25;;;;;;;;;;;8.90;99.90;;;;;;5034355;28;19912;-61
2022/01/18 12:00:06;;;;;;;;;;;8.80;99.90;;;;;;5052352;28;19913;-60
2022/01/18 12:02:40;;;;;;;;;;;8.80;99.90;;;;;;5051865;28;20140;-61
2022/01/18 12:05:21;;;;;;;;;;;9.10;99.90;;;;;;5051810;28;20302;-63
2022/01/18 12:07:49;;;;;;;;;;;9.40;99.90;;;;;;5052163;28;19912;-62
2022/01/18 12:10:30;;;;;;;;;;;9.50;99.90;;;;;;5051773;28;19909;-62
2022/01/18 12:12:56;;;;;;;;;;;;;;;;;;5033409;28;20359;-60
2022/01/18 12:15:26;;;;;;;;;;;9.50;99.90;;;;;;5051819;28;19944;-61
2022/01/18 12:17:59;;;;;;;;;;;11.70;99.90;;;;;;5034030;28;19959;-62
2022/01/18 12:20:46;;;;;;;;;;;12.70;99.90;;;;;;5052636;28;19916;-62
2022/01/18 12:23:20;;;;;;;;;;;12.50;99.90;;;;;;5051538;28;19909;-61
2022/01/18 12:25:56;;;;;;;;;;;11.50;99.90;;;;;;5051815;28;19912;-61
2022/01/18 12:34:24;;;;;;;;;;;9.50;99.90;;;;;;5053427;28;19996;-62
2022/01/18 12:36:52;;;;;;;;;;;9.20;99.90;;;;;;5050669;28;19915;-61
2022/01/18 12:39:18;;;;;;;;;;;9.00;99.90;;;;;;5050759;28;19920;-61
2022/01/18 12:41:46;;;;;;;;;;;8.90;99.90;;;;;;5051492;28;19909;-56
2022/01/18 12:44:20;;;;;;;;;;;9.00;99.90;;;;;;5050959;28;19908;-58
2022/01/18 12:47:12;;;;;;;;;;;9.30;99.90;;;;;;5051038;28;19912;-61
2022/01/18 12:49:39;;;;;;;;;;;9.70;99.90;;;;;;5048613;28;20338;-61
2022/01/18 12:52:05;;;;;;;;;;;;;;;;;;5051103;28;19997;-59
2022/01/18 12:54:31;;;;;;;;;;;;;;;;;;5050771;28;19909;-60
2022/01/18 12:56:57;;;;;;;;;;;;;;;;;;5050797;28;19951;-59
2022/01/18 12:59:22;;;;;;;;;;;10.40;99.90;;;;;;5092104;22;20310;-61
2022/01/18 13:01:50;;;;;;;;;;;9.60;99.90;;;;;;5072515;28;19962;-64
2022/01/18 13:04:19;;;;;;;;;;;9.60;99.90;;;;;;5072239;28;19909;-64
2022/01/18 13:06:45;;;;;;;;;;;9.60;99.90;;;;;;5054761;28;20437;-64
2022/01/18 13:09:10;;;;;;;;;;;10.20;99.90;;;;;;5054880;28;19909;-63
2022/01/18 13:11:42;;;;;;;;;;;10.40;99.90;;;;;;5054285;28;19916;-62
2022/01/18 13:14:11;;;;;;;;;;;10.70;99.90;;;;;;5073328;28;19916;-63
2022/01/18 13:27:31;;;;;;;;;;;9.20;99.90;;;;;;5077382;28;19909;-64
2022/01/18 13:29:59;;;;;;;;;;;;;;;;;;5072190;28;19954;-64
2022/01/18 13:32:31;;;;;;;;;;;10.50;99.90;;;;;;5071943;28;19935;-62
2022/01/18 13:34:59;;;;;;;;;;;11.30;99.90;;;;;;5073480;28;19995;-60
2022/01/18 13:37:27;;;;;;;;;;;12.10;99.90;;;;;;5072123;28;19909;-61
2022/01/18 13:39:53;;;;;;;;;;;12.30;99.90;;;;;;5072423;28;19908;-63
2022/01/18 13:42:31;;;;;;;;;;;11.80;99.90;;;;;;5073159;28;19951;-62
2022/01/18 13:45:09;;;;;;;;;;;11.70;99.90;;;;;;5047600;28;19912;-61
2022/01/18 13:47:44;;;;;;;;;;;11.20;99.90;;;;;;5051853;28;19963;-60
2022/01/18 13:50:28;;;;;;;;;;;10.30;99.90;;;;;;5053149;28;20003;-62
2022/01/18 13:53:00;;;;;;;;;;;9.50;99.90;;;;;;5055589;28;19955;-59
2022/01/18 13:55:27;;;;;;;;;;;9.50;99.90;;;;;;5055865;28;19909;-63
2022/01/18 13:57:59;;;;;;;;;;;9.70;99.90;;;;;;5055755;28;19996;-63
2022/01/18 14:00:25;;;;;;;;;;;9.80;99.90;;;;;;5056347;28;19912;-63
2022/01/18 14:02:51;;;;;;;;;;;9.60;99.90;;;;;;5056407;28;20359;-61
2022/01/18 14:05:20;;;;;;;;;;;9.60;99.90;;;;;;5056342;28;19952;-61
2022/01/18 14:07:46;;;;;;;;;;;9.80;99.90;;;;;;5055851;28;19991;-62
2022/01/18 14:10:12;;;;;;;;;;;9.90;99.90;;;;;;5055511;28;19955;-60
2022/01/18 14:12:37;;;;;;;;;;;9.80;99.90;;;;;;5055248;28;19909;-61
2022/01/18 14:15:03;;;;;;;;;;;9.60;99.90;;;;;;5056134;28;19983;-62
2022/01/18 14:17:28;;;;;;;;;;;9.30;99.90;;;;;;5057886;28;19962;-61
2022/01/18 14:20:05;;;;;;;;;;;9.10;99.90;;;;;;5037681;28;20284;-56
2022/01/18 14:22:34;;;;;;;;;;;8.90;99.90;;;;;;5037138;28;19920;-63
2022/01/18 14:25:04;;;;;;;;;;;8.70;99.90;;;;;;5055612;28;19979;-62
2022/01/18 14:27:32;;;;;;;;;;;8.60;99.90;;;;;;5055425;28;19909;-61
2022/01/18 14:30:05;;;;;;;;;;;8.50;99.90;;;;;;5055470;28;20418;-63
2022/01/18 14:32:35;;;;;;;;;;;8.50;99.90;;;;;;5054928;28;19916;-64
2022/01/18 14:35:05;;;;;;;;;;;8.40;99.90;;;;;;5055144;28;19909;-60
2022/01/18 14:37:48;;;;;;;;;;;8.40;99.90;;;;;;5054991;28;19916;-62
2022/01/18 14:40:20;;;;;;;;;;;8.50;99.90;;;;;;5036948;28;20327;-56
2022/01/18 14:42:50;;;;;;;;;;;8.30;99.90;;;;;;5054785;28;19916;-63
2022/01/18 14:47:43;;;;;;;;;;;8.30;99.90;;;;;;5054717;28;19915;-61
2022/01/18 14:50:10;;;;;;;;;;;8.20;99.90;;;;;;5054821;28;20288;-56
2022/01/18 14:52:37;;;;;;;;;;;8.20;99.90;;;;;;5054085;28;20001;-63
2022/01/18 14:55:03;;;;;;;;;;;8.20;99.90;;;;;;5054879;28;20283;-60
2022/01/18 14:57:30;;;;;;;;;;;8.30;99.90;;;;;;5054329;28;19923;-63
2022/01/18 14:59:55;;;;;;;;;;;8.30;99.90;;;;;;5055932;28;19917;-61
2022/01/18 15:02:21;;;;;;;;;;;8.30;99.90;;;;;;5053787;28;19962;-63
2022/01/18 15:04:47;;;;;;;;;;;8.30;99.90;;;;;;5055054;28;19913;-59
2022/01/18 15:07:12;;;;;;;;;;;8.40;99.90;;;;;;5036439;28;19970;-63
2022/01/18 15:09:38;;;;;;;;;;;8.20;99.90;;;;;;5054288;28;20342;-61
2022/01/18 15:12:04;;;;;;;;;;;8.30;99.90;;;;;;5054086;28;19924;-62
2022/01/18 15:14:30;;;;;;;;;;;8.30;99.90;;;;;;5054490;28;19932;-61
2022/01/18 15:16:56;;;;;;;;;;;8.20;99.90;;;;;;5036712;28;20373;-63
2022/01/18 15:19:21;;;;;;;;;;;8.20;99.90;;;;;;5054534;28;19909;-63
2022/01/18 15:21:47;;;;;;;;;;;8.30;99.90;;;;;;5037331;28;19909;-62
2022/01/18 15:24:13;;;;;;;;;;;8.30;99.90;;;;;;5054949;28;19912;-62
2022/01/18 15:26:38;;;;;;;;;;;8.20;99.90;;;;;;5055107;28;20288;-62
2022/01/18 15:29:04;;;;;;;;;;;8.10;99.90;;;;;;5054655;28;19912;-61
2022/01/18 15:31:29;;;;;;;;;;;8.10;99.90;;;;;;5036650;28;19913;-58
2022/01/18 15:33:55;;;;;;;;;;;8.20;99.90;;;;;;5054145;28;19913;-63
2022/01/18 15:36:21;;;;;;;;;;;8.10;99.90;;;;;;5054082;28;20399;-61
2022/01/18 15:38:46;;;;;;;;;;;8.20;99.90;;;;;;5054754;28;20003;-60
2022/01/18 15:41:12;;;;;;;;;;;8.10;99.90;;;;;;5054810;28;19909;-62
2022/01/18 15:43:37;;;;;;;;;;;8.00;99.90;;;;;;5053911;28;19928;-61
2022/01/18 15:46:03;;;;;;;;;;;8.00;99.90;;;;;;5053602;28;19913;-60
2022/01/18 15:48:29;;;;;;;;;;;8.00;99.90;;;;;;5036153;28;19913;-58
2022/01/18 15:50:55;;;;;;;;;;;7.90;99.90;;;;;;5052583;28;20387;-57
2022/01/18 15:53:20;;;;;;;;;;;7.90;99.90;;;;;;5035516;28;19908;-63
2022/01/18 15:55:46;;;;;;;;;;;8.00;99.90;;;;;;5054125;28;20011;-63
2022/01/18 15:58:12;;;;;;;;;;;7.90;99.90;;;;;;5054287;28;20373;-62
2022/01/18 16:00:41;;;;;;;;;;;7.90;99.90;;;;;;5053991;28;19908;-60
2022/01/18 16:03:07;;;;;;;;;;;8.00;99.90;;;;;;5053575;28;19909;-54
2022/01/18 16:05:32;;;;;;;;;;;8.00;99.90;;;;;;5034992;28;19912;-62
2022/01/18 16:07:58;;;;;;;;;;;7.90;99.90;;;;;;5052714;28;19944;-61
2022/01/18 16:10:23;;;;;;;;;;;7.80;99.90;;;;;;5035747;28;19963;-63
2022/01/18 16:12:49;;;;;;;;;;;7.80;99.90;;;;;;5052782;28;20011;-64
2022/01/18 16:15:14;;;;;;;;;;;7.80;99.90;;;;;;5035536;28;19913;-58
2022/01/18 16:17:40;;;;;;;;;;;7.80;99.90;;;;;;5053734;28;19916;-62
2022/01/18 16:20:06;;;;;;;;;;;7.80;99.90;;;;;;5053176;28;19917;-63
2022/01/18 16:22:31;;;;;;;;;;;7.70;99.90;;;;;;5052704;28;19916;-60
2022/01/18 16:24:57;;;;;;;;;;;7.70;99.90;;;;;;5035148;28;19919;-64
2022/01/18 16:27:22;;;;;;;;;;;7.70;99.90;;;;;;5053278;28;19916;-62
2022/01/18 16:29:48;;;;;;;;;;;7.70;99.90;;;;;;5035405;28;19966;-62
2022/01/18 16:32:14;;;;;;;;;;;7.60;99.90;;;;;;5052831;28;19912;-63
2022/01/18 16:34:40;;;;;;;;;;;7.60;99.90;;;;;;5053070;28;19909;-60
2022/01/18 16:37:05;;;;;;;;;;;7.60;99.90;;;;;;5053541;28;20368;-61
2022/01/18 16:39:31;;;;;;;;;;;7.60;99.90;;;;;;5053267;28;20390;-61
2022/01/18 16:41:57;;;;;;;;;;;7.70;99.90;;;;;;5052874;28;19912;-64
2022/01/18 16:44:23;;;;;;;;;;;7.70;99.90;;;;;;5034514;28;19971;-58
2022/01/18 16:46:49;;;;;;;;;;;7.60;99.90;;;;;;5053488;28;19925;-63
2022/01/18 16:49:14;;;;;;;;;;;7.60;99.90;;;;;;5053219;28;19909;-62
2022/01/18 16:51:41;;;;;;;;;;;7.60;99.90;;;;;;5053231;28;19920;-62
2022/01/18 16:54:08;;;;;;;;;;;7.60;99.90;;;;;;5052432;28;19909;-65
2022/01/18 16:56:34;;;;;;;;;;;7.60;99.90;;;;;;5051850;28;19936;-60
2022/01/18 16:59:00;;;;;;;;;;;7.60;99.90;;;;;;5053685;28;19920;-64
2022/01/18 17:01:25;;;;;;;;;;;7.70;99.90;;;;;;5053524;28;19909;-64
2022/01/18 17:03:51;;;;;;;;;;;7.70;99.90;;;;;;5035070;28;20295;-59
2022/01/18 17:06:18;;;;;;;;;;;7.60;99.90;;;;;;5053276;28;19913;-60
2022/01/18 17:08:43;;;;;;;;;;;7.70;99.90;;;;;;5053853;28;19952;-64
2022/01/18 17:11:11;;;;;;;;;;;7.70;99.90;;;;;;5035841;28;19914;-64
2022/01/18 17:13:36;;;;;;;;;;;7.60;99.90;;;;;;5053526;28;19995;-61
2022/01/18 17:16:03;;;;;;;;;;;7.50;99.90;;;;;;5053990;28;19943;-61
2022/01/18 17:18:29;;;;;;;;;;;7.40;99.90;;;;;;5035768;28;20361;-63
2022/01/18 17:20:54;;;;;;;;;;;7.40;99.90;;;;;;5035218;28;19916;-63
2022/01/18 17:23:20;;;;;;;;;;;7.30;99.90;;;;;;5053280;28;20396;-63